Flight Track Log - Related Links

Times and Time Zones

All times are in EDT time to prevent confusion due to time zone crossing. See the VH-MMR flight status page for this flight to view local times or setup timezone preferences in your user account.

Time Position Orientation Groundspeed Altitude Reporting Facility
EDT Latitude Longitude Course Direction KTS MPH feet Rate Location/Type
Sun 05:22:11 PM -28.1554 153.4673 208° Southwest 128 147 1,300  Level Aus ATC (RADAR)
Sun 05:22:46 PM -28.1753 153.4553 208° Southwest 138 159 1,700 686 Climbing Aus ATC (RADAR)
Sun 05:23:21 PM -28.1954 153.4432 208° Southwest 140 161 2,100 738 Climbing Aus ATC (RADAR)
Sun 05:23:51 PM -28.2131 153.4327 207° Southwest 143 165 2,500 738 Climbing Aus ATC (RADAR)
Sun 05:24:26 PM -28.2344 153.4194 209° Southwest 146 168 2,900 672 Climbing Aus ATC (RADAR)
Sun 05:25:56 PM -28.2863 153.3878 208° Southwest 140 161 3,900 678 Climbing Aus ATC (RADAR)
Sun 05:26:21 PM -28.3005 153.3790 209° Southwest 140 161 4,200 700 Climbing Aus ATC (RADAR)
Sun 05:26:56 PM -28.3200 153.3673 208° Southwest 136 157 4,600 684 Climbing Aus ATC (RADAR)
Sun 05:27:40 PM -28.3444 153.3524 208° Southwest 133 153 5,100 714 Climbing Aus ATC (RADAR)
Sun 05:28:20 PM -28.3659 153.3396 208° Southwest 131 151 5,600 675 Climbing Aus ATC (RADAR)
Sun 05:29:00 PM -28.3875 153.3267 208° Southwest 131 151 6,000 646 Climbing Aus ATC (RADAR)
Sun 05:29:25 PM -28.4006 153.3197 205° Southwest 127 146 6,300 695 Climbing Aus ATC (RADAR)
Sun 05:30:35 PM -28.4372 153.2996 206° Southwest 125 144 7,100 632 Climbing Aus ATC (RADAR)
Sun 05:31:00 PM -28.4502 153.2924 206° Southwest 124 143 7,300 545 Climbing Aus ATC (RADAR)
Sun 05:31:30 PM -28.4654 153.2836 207° Southwest 123 142 7,600 525 Climbing Aus ATC (RADAR)
Sun 05:32:20 PM -28.4898 153.2695 207° Southwest 119 137 8,000 282 Climbing Aus ATC (RADAR)
Sun 05:32:55 PM -28.5096 153.2572 209° Southwest 137 158 8,000  Level Aus ATC (RADAR)
Sun 05:33:45 PM -28.5399 153.2379 209° Southwest 151 174 8,000  Level Aus ATC (RADAR)
Sun 05:34:00 PM -28.5496 153.2325 206° Southwest 154 177 8,000  Level Aus ATC (RADAR)
Sun 05:34:35 PM -28.5717 153.2191 208° Southwest 155 178 8,000  Level Aus ATC (RADAR)
Sun 05:35:50 PM -28.6206 153.1938 204° Southwest 154 177 8,000  Level Aus ATC (RADAR)
Sun 05:36:15 PM -28.6372 153.1859 203° Southwest 155 178 8,000  Level Aus ATC (RADAR)
Sun 05:36:40 PM -28.6537 153.1781 203° Southwest 154 177 8,000  Level Aus ATC (RADAR)
Sun 05:37:35 PM -28.6899 153.1601 204° Southwest 155 178 8,000  Level Aus ATC (RADAR)
Sun 05:38:10 PM -28.7131 153.1496 202° Southwest 154 177 8,000  Level Aus ATC (RADAR)
Sun 05:38:44 PM -28.7371 153.1409 198° South 154 177 8,000  Level Aus ATC (RADAR)
Sun 05:39:14 PM -28.7577 153.1335 198° South 156 180 8,000  Level Aus ATC (RADAR)
Sun 05:40:19 PM -28.8007 153.1121 203° Southwest 155 178 8,000  Level Aus ATC (RADAR)
Sun 05:40:44 PM -28.8167 153.1028 207° Southwest 155 178 8,000  Level Aus ATC (RADAR)
Sun 05:41:09 PM -28.8330 153.0938 206° Southwest 156 180 8,000  Level Aus ATC (RADAR)
Sun 05:41:44 PM -28.8560 153.0823 204° Southwest 155 178 8,000  Level Aus ATC (RADAR)
Sun 05:42:24 PM -28.8818 153.0678 206° Southwest 155 178 8,000  Level Aus ATC (RADAR)
Sun 05:42:59 PM -28.9051 153.0564 203° Southwest 156 180 8,000  Level Aus ATC (RADAR)
Sun 05:43:34 PM -28.9293 153.0475 198° South 157 181 8,000  Level Aus ATC (RADAR)
Sun 05:44:09 PM -28.9529 153.0373 201° Southwest 156 180 8,000  Level Aus ATC (RADAR)
Sun 05:44:44 PM -28.9766 153.0275 200° South 156 180 8,000  Level Aus ATC (RADAR)
Sun 05:46:09 PM -29.0340 153.0024 201° Southwest 156 180 8,000  Level Aus ATC (RADAR)
Sun 05:46:34 PM -29.0507 152.9946 202° Southwest 155 178 8,000  Level Aus ATC (RADAR)
Sun 05:47:09 PM -29.0746 152.9845 200° South 156 180 8,000  Level Aus ATC (RADAR)
Sun 05:47:53 PM -29.1051 152.9713 201° Southwest 156 180 8,000  Level Aus ATC (RADAR)
Sun 05:48:28 PM -29.1290 152.9608 201° Southwest 157 181 8,000  Level Aus ATC (RADAR)
Sun 05:49:08 PM -29.1564 152.9483 202° Southwest 159 183 8,000  Level Aus ATC (RADAR)
Sun 05:49:33 PM -29.1740 152.9416 198° South 160 184 8,000  Level Aus ATC (RADAR)
Sun 05:50:48 PM -29.2260 152.9198 200° South 159 183 8,000  Level Aus ATC (RADAR)
Sun 05:51:13 PM -29.2428 152.9109 205° Southwest 159 183 8,000  Level Aus ATC (RADAR)
Sun 05:51:48 PM -29.2665 152.8999 202° Southwest 158 182 8,000  Level Aus ATC (RADAR)
Sun 05:52:33 PM -29.2975 152.8872 200° South 158 182 8,000  Level Aus ATC (RADAR)
Sun 05:53:03 PM -29.3181 152.8782 201° Southwest 158 182 8,000  Level Aus ATC (RADAR)
Sun 05:53:38 PM -29.3417 152.8672 202° Southwest 156 180 8,000 86 Level Aus ATC (RADAR)
Sun 05:54:13 PM -29.3635 152.8542 207° Southwest 153 176 8,100  Climbing Aus ATC (RADAR)
Sun 05:54:48 PM -29.3892 152.8474 193° South 160 184 8,000 -48 Descending Aus ATC (RADAR)
Sun 05:56:18 PM -29.4558 152.8406 185° South 158 182 8,000  Level Aus ATC (RADAR)
Sun 05:56:32 PM -29.4665 152.8386 189° South 159 183 8,000  Level Aus ATC (RADAR)
Sun 05:57:07 PM -29.4917 152.8313 194° South 159 183 8,000  Level Aus ATC (RADAR)
Sun 05:57:52 PM -29.5221 152.8167 203° Southwest 158 182 8,000  Level Aus ATC (RADAR)
Sun 05:58:27 PM -29.5455 152.8049 204° Southwest 158 182 8,000  Level Aus ATC (RADAR)
Sun 05:59:12 PM -29.5754 152.7889 205° Southwest 158 182 8,000  Level Aus ATC (RADAR)
Sun 05:59:37 PM -29.5918 152.7798 206° Southwest 158 182 8,000  Level Aus ATC (RADAR)
Sun 06:01:07 PM -29.6505 152.7455 207° Southwest 159 183 8,000  Level Aus ATC (RADAR)
Sun 06:01:32 PM -29.6667 152.7353 209° Southwest 160 184 8,000  Level Aus ATC (RADAR)
Sun 06:02:02 PM -29.6865 152.7232 208° Southwest 161 185 8,000  Level Aus ATC (RADAR)
Sun 06:02:37 PM -29.7096 152.7090 208° Southwest 161 185 8,000  Level Aus ATC (RADAR)
Sun 06:03:22 PM -29.7394 152.6913 207° Southwest 161 185 8,000  Level Aus ATC (RADAR)
Sun 06:03:57 PM -29.7629 152.6784 205° Southwest 161 185 8,000  Level Aus ATC (RADAR)
Sun 06:04:42 PM -29.7959 152.6682 195° South 163 188 8,000  Level Aus ATC (RADAR)
Sun 06:05:07 PM -29.8135 152.6608 200° South 162 186 8,000  Level Aus ATC (RADAR)
Sun 06:06:22 PM -29.8658 152.6375 201° Southwest 162 186 8,000  Level Aus ATC (RADAR)
Sun 06:06:47 PM -29.8830 152.6297 201° Southwest 160 184 8,000  Level Aus ATC (RADAR)
Sun 06:07:21 PM -29.9072 152.6191 201° Southwest 160 184 8,000  Level Aus ATC (RADAR)
Sun 06:08:06 PM -29.9382 152.6057 201° Southwest 160 184 8,000  Level Aus ATC (RADAR)
Sun 06:08:41 PM -29.9625 152.5949 201° Southwest 160 184 8,000  Level Aus ATC (RADAR)
Sun 06:09:16 PM -29.9867 152.5841 201° Southwest 160 184 8,000  Level Aus ATC (RADAR)
Sun 06:09:51 PM -30.0106 152.5734 201° Southwest 159 183 8,000  Level Aus ATC (RADAR)
Sun 06:11:01 PM -30.0584 152.5520 201° Southwest 158 182 8,000  Level Aus ATC (RADAR)
Sun 06:11:32 PM -30.0783 152.5421 203° Southwest 157 181 8,000  Level Aus ATC (RADAR)
Sun 06:11:46 PM -30.0882 152.5371 204° Southwest 156 180 8,000  Level Aus ATC (RADAR)
Sun 06:12:21 PM -30.1110 152.5255 204° Southwest 154 177 8,000  Level Aus ATC (RADAR)
Sun 06:13:06 PM -30.1412 152.5118 201° Southwest 156 180 8,000  Level Aus ATC (RADAR)
Sun 06:13:41 PM -30.1647 152.5014 201° Southwest 155 178 8,000  Level Aus ATC (RADAR)
Sun 06:14:26 PM -30.1952 152.4887 200° South 156 180 8,000  Level Aus ATC (RADAR)
Sun 06:14:51 PM -30.2123 152.4822 198° South 155 178 8,000  Level Aus ATC (RADAR)
Sun 06:15:51 PM -30.2534 152.4666 198° South 155 178 8,000  Level Aus ATC (RADAR)
Sun 06:16:25 PM -30.2768 152.4564 201° Southwest 153 176 8,000  Level Aus ATC (RADAR)
Sun 06:16:40 PM -30.2866 152.4518 202° Southwest 153 176 8,000  Level Aus ATC (RADAR)
Sun 06:17:15 PM -30.3097 152.4409 202° Southwest 154 177 8,000  Level Aus ATC (RADAR)
Sun 06:18:10 PM -30.3464 152.4242 201° Southwest 154 177 8,000  Level Aus ATC (RADAR)
Sun 06:18:50 PM -30.3732 152.4120 201° Southwest 155 178 8,000  Level Aus ATC (RADAR)
Sun 06:19:35 PM -30.4029 152.3984 202° Southwest 153 176 8,000  Level Aus ATC (RADAR)
Sun 06:20:10 PM -30.4265 152.3885 200° South 155 178 8,000  Level Aus ATC (RADAR)
Sun 06:21:30 PM -30.4794 152.3650 201° Southwest 152 175 8,000  Level Aus ATC (RADAR)
Sun 06:21:55 PM -30.4960 152.3573 202° Southwest 154 177 8,000  Level Aus ATC (RADAR)
Sun 06:22:35 PM -30.5226 152.3461 200° South 153 176 8,000  Level Aus ATC (RADAR)
Sun 06:23:20 PM -30.5526 152.3335 200° South 152 175 8,000  Level Aus ATC (RADAR)
Sun 06:23:55 PM -30.5760 152.3233 201° Southwest 155 178 8,000  Level Aus ATC (RADAR)
Sun 06:24:40 PM -30.6063 152.3106 200° South 154 177 8,000  Level Aus ATC (RADAR)
Sun 06:25:05 PM -30.6229 152.3038 199° South 153 176 8,000  Level Aus ATC (RADAR)
Sun 06:26:00 PM -30.6512 152.2757 220° Southwest 147 169 8,000  Level Aus ATC (RADAR)
Sun 06:26:25 PM -30.6648 152.2639 217° Southwest 146 168 8,000  Level Aus ATC (RADAR)
Sun 06:26:50 PM -30.6799 152.2541 209° Southwest 147 169 8,000  Level Aus ATC (RADAR)
Sun 06:27:30 PM -30.7058 152.2416 202° Southwest 151 174 8,000  Level Aus ATC (RADAR)
Sun 06:28:14 PM -30.7360 152.2287 200° South 153 176 8,000  Level Aus ATC (RADAR)
Sun 06:28:49 PM -30.7592 152.2180 202° Southwest 154 177 8,000  Level Aus ATC (RADAR)
Sun 06:29:34 PM -30.7879 152.2029 204° Southwest 150 173 8,000  Level Aus ATC (RADAR)
Sun 06:29:59 PM -30.8017 152.1954 205° Southwest 137 158 8,000  Level Aus ATC (RADAR)
Sun 06:30:34 PM -30.8223 152.1843 205° Southwest 140 161 8,000  Level Aus ATC (RADAR)
Sun 06:31:54 PM -30.8739 152.1559 205° Southwest 155 178 8,000  Level Aus ATC (RADAR)
Sun 06:32:19 PM -30.8903 152.1474 204° Southwest 155 178 8,000  Level Aus ATC (RADAR)
Sun 06:32:54 PM -30.9131 152.1352 205° Southwest 155 178 8,000  Level Aus ATC (RADAR)
Sun 06:33:44 PM -30.9455 152.1174 205° Southwest 155 178 8,000  Level Aus ATC (RADAR)
Sun 06:34:19 PM -30.9683 152.1061 203° Southwest 153 176 8,000  Level Aus ATC (RADAR)
Sun 06:35:04 PM -30.9966 152.0903 206° Southwest 151 174 8,000  Level Aus ATC (RADAR)
Sun 06:35:28 PM -31.0128 152.0818 204° Southwest 153 176 8,000  Level Aus ATC (RADAR)
Sun 06:36:49 PM -31.0646 152.0536 205° Southwest 156 180 8,000  Level Aus ATC (RADAR)
Sun 06:37:08 PM -31.0779 152.0465 205° Southwest 157 181 8,000  Level Aus ATC (RADAR)
Sun 06:37:44 PM -31.1012 152.0338 205° Southwest 158 182 8,000  Level Aus ATC (RADAR)
Sun 06:38:28 PM -31.1310 152.0176 205° Southwest 158 182 8,000  Level Aus ATC (RADAR)
Sun 06:39:03 PM -31.1539 152.0055 204° Southwest 155 178 8,000  Level Aus ATC (RADAR)
Sun 06:39:38 PM -31.1765 151.9933 205° Southwest 154 177 8,000  Level Aus ATC (RADAR)
Sun 06:40:13 PM -31.1987 151.9804 206° Southwest 153 176 8,000  Level Aus ATC (RADAR)
Sun 06:40:48 PM -31.2214 151.9682 205° Southwest 155 178 8,000  Level Aus ATC (RADAR)
Sun 06:41:58 PM -31.2614 151.9362 214° Southwest 146 168 8,000  Level Aus ATC (RADAR)
Sun 06:42:23 PM -31.2714 151.9196 235° Southwest 147 169 8,000  Level Aus ATC (RADAR)
Sun 06:42:58 PM -31.2866 151.8972 232° Southwest 150 173 8,000  Level Aus ATC (RADAR)
Sun 06:43:44 PM -31.3066 151.8691 230° Southwest 151 174 8,000  Level Aus ATC (RADAR)
Sun 06:44:18 PM -31.3220 151.8477 230° Southwest 149 171 8,000  Level Aus ATC (RADAR)
Sun 06:44:53 PM -31.3375 151.8255 231° Southwest 151 174 8,000  Level Aus ATC (RADAR)
Sun 06:45:33 PM -31.3554 151.8009 229° Southwest 150 173 8,000  Level Aus ATC (RADAR)
Sun 06:46:43 PM -31.3872 151.7567 230° Southwest 152 175 8,000  Level Aus ATC (RADAR)
Sun 06:47:08 PM -31.3984 151.7408 231° Southwest 152 175 8,000  Level Aus ATC (RADAR)
Sun 06:47:37 PM -31.4122 151.7223 229° Southwest 152 175 8,000  Level Aus ATC (RADAR)
Sun 06:48:02 PM -31.4236 151.7060 231° Southwest 154 177 8,000  Level Aus ATC (RADAR)
Sun 06:48:48 PM -31.4443 151.6765 231° Southwest 156 180 8,000  Level Aus ATC (RADAR)
Sun 06:49:22 PM -31.4597 151.6537 231° Southwest 153 176 8,000  Level Aus ATC (RADAR)
Sun 06:50:07 PM -31.4804 151.6274 227° Southwest 151 174 8,000  Level Aus ATC (RADAR)
Sun 06:50:32 PM -31.4916 151.6119 230° Southwest 149 171 8,000  Level Aus ATC (RADAR)
Sun 06:51:27 PM -31.5148 151.5777 231° Southwest 147 169 8,000  Level Aus ATC (RADAR)
Sun 06:51:57 PM -31.5282 151.5593 230° Southwest 149 171 8,000  Level Aus ATC (RADAR)
Sun 06:52:22 PM -31.5395 151.5436 230° Southwest 151 174 8,000  Level Aus ATC (RADAR)
Sun 06:52:57 PM -31.5546 151.5212 232° Southwest 150 173 8,000  Level Aus ATC (RADAR)
Sun 06:53:42 PM -31.5749 151.4931 230° Southwest 152 175 8,000  Level Aus ATC (RADAR)
Sun 06:54:17 PM -31.5901 151.4714 231° Southwest 148 170 8,000  Level Aus ATC (RADAR)
Sun 06:55:02 PM -31.6097 151.4442 230° Southwest 146 168 8,000  Level Aus ATC (RADAR)
Sun 06:55:27 PM -31.6205 151.4286 231° Southwest 147 169 8,000  Level Aus ATC (RADAR)
Sun 06:56:02 PM -31.6358 151.4064 231° Southwest 152 175 8,000  Level Aus ATC (RADAR)
Sun 06:56:56 PM -31.6601 151.3720 230° Southwest 151 174 8,000  Level Aus ATC (RADAR)
Sun 06:57:21 PM -31.6710 151.3571 229° Southwest 147 169 8,000 -92 Level Aus ATC (RADAR)
Sun 06:58:01 PM -31.6887 151.3316 231° Southwest 151 174 7,900 -71 Descending Aus ATC (RADAR)
Sun 06:58:46 PM -31.7086 151.3033 231° Southwest 151 174 7,900  Level Aus ATC (RADAR)
Sun 06:59:21 PM -31.7242 151.2811 230° Southwest 152 175 7,900  Level Aus ATC (RADAR)
Sun 07:00:17 PM -31.7461 151.2502 230° Southwest 148 170 7,900  Level Aus ATC (RADAR)
Sun 07:00:31 PM -31.7547 151.2376 231° Southwest 149 171 7,900  Level Aus ATC (RADAR)
Sun 07:01:06 PM -31.7700 151.2161 230° Southwest 148 170 7,900  Level Aus ATC (RADAR)
Sun 07:02:11 PM -31.7991 151.1744 231° Southwest 155 178 7,900  Level Aus ATC (RADAR)
Sun 07:02:36 PM -31.8104 151.1588 229° Southwest 151 174 7,900  Level Aus ATC (RADAR)
Sun 07:03:11 PM -31.8259 151.1365 231° Southwest 151 174 7,900  Level Aus ATC (RADAR)
Sun 07:03:56 PM -31.8457 151.1078 231° Southwest 151 174 7,900  Level Aus ATC (RADAR)
Sun 07:04:31 PM -31.8610 151.0863 230° Southwest 148 170 7,900 71 Level Aus ATC (RADAR)
Sun 07:05:21 PM -31.8830 151.0549 231° Southwest 149 171 8,000 81 Climbing Aus ATC (RADAR)
Sun 07:05:45 PM -31.8942 151.0386 231° Southwest 153 176 8,000 -64 Level Aus ATC (RADAR)
Sun 07:06:55 PM -31.9250 150.9946 230° Southwest 150 173 7,900  Descending Aus ATC (RADAR)
Sun 07:07:25 PM -31.9382 150.9762 230° Southwest 148 170 8,000 109 Climbing Aus ATC (RADAR)
Sun 07:07:50 PM -31.9492 150.9603 231° Southwest 150 173 8,000  Level Aus ATC (RADAR)
Sun 07:08:25 PM -31.9649 150.9377 231° Southwest 153 176 8,000 -75 Level Aus ATC (RADAR)
Sun 07:09:10 PM -31.9851 150.9088 230° Southwest 154 177 7,900  Descending Aus ATC (RADAR)
Sun 07:09:45 PM -32.0007 150.8862 231° Southwest 155 178 8,000  Climbing Aus ATC (RADAR)
Sun 07:10:30 PM -32.0210 150.8567 231° Southwest 157 181 7,900 -86 Descending Aus ATC (RADAR)
Sun 07:10:55 PM -32.0325 150.8409 230° Southwest 155 178 7,900 71 Level Aus ATC (RADAR)
Sun 07:11:55 PM -32.0748 150.8310 191° South 163 188 8,000 71 Climbing Aus ATC (RADAR)
Sun 07:12:20 PM -32.0934 150.8298 183° South 161 185 8,000  Level Aus ATC (RADAR)
Sun 07:12:45 PM -32.1125 150.8298 180° South 162 186 8,000  Level Aus ATC (RADAR)
Sun 07:13:20 PM -32.1386 150.8280 183° South 160 184 8,000  Level Aus ATC (RADAR)
Sun 07:14:05 PM -32.1724 150.8272 181° South 158 182 8,000  Level Aus ATC (RADAR)
Sun 07:14:40 PM -32.1987 150.8263 182° South 160 184 8,000  Level Aus ATC (RADAR)
Sun 07:15:30 PM -32.2360 150.8249 182° South 159 183 8,000  Level Aus ATC (RADAR)
Sun 07:15:54 PM -32.2547 150.8240 182° South 160 184 8,000  Level Aus ATC (RADAR)
Sun 07:16:50 PM -32.2954 150.8225 182° South 158 182 8,000  Level Aus ATC (RADAR)
Sun 07:17:14 PM -32.3139 150.8219 182° South 159 183 8,000  Level Aus ATC (RADAR)
Sun 07:17:39 PM -32.3324 150.8213 181° South 158 182 8,000  Level Aus ATC (RADAR)
Sun 07:18:14 PM -32.3585 150.8206 181° South 158 182 8,000  Level Aus ATC (RADAR)
Sun 07:19:04 PM -32.3944 150.8178 184° South 159 183 8,000 -71 Level Aus ATC (RADAR)
Sun 07:19:39 PM -32.4209 150.8187 178° South 162 186 7,900 -71 Descending Aus ATC (RADAR)
Sun 07:20:29 PM -32.4580 150.8164 183° South 161 185 7,900  Level Aus ATC (RADAR)
Sun 07:20:49 PM -32.4726 150.8169 178° South 158 182 7,900  Level Aus ATC (RADAR)
Sun 07:21:24 PM -32.4983 150.8150 183° South 157 181 7,900  Level Aus ATC (RADAR)
Sun 07:22:34 PM -32.5511 150.8141 181° South 159 183 7,900  Level Aus ATC (RADAR)
Sun 07:22:59 PM -32.5691 150.8130 183° South 161 185 7,900  Level Aus ATC (RADAR)
Sun 07:23:34 PM -32.5956 150.8122 181° South 162 186 7,900  Level Aus ATC (RADAR)
Sun 07:24:19 PM -32.6298 150.8114 181° South 164 189 7,900  Level Aus ATC (RADAR)
Sun 07:24:54 PM -32.6564 150.8103 182° South 165 190 7,900  Level Aus ATC (RADAR)
Sun 07:25:39 PM -32.6905 150.8091 182° South 163 188 7,900  Level Aus ATC (RADAR)
Sun 07:26:09 PM -32.7134 150.8082 182° South 164 189 7,900  Level Aus ATC (RADAR)
Sun 07:27:04 PM -32.7552 150.8065 182° South 163 188 7,900  Level Aus ATC (RADAR)
Sun 07:27:29 PM -32.7741 150.8060 181° South 164 189 7,900  Level Aus ATC (RADAR)
Sun 07:27:58 PM -32.7967 150.8055 181° South 163 188 7,900  Level Aus ATC (RADAR)
Sun 07:28:33 PM -32.8228 150.8043 182° South 160 184 7,900  Level Aus ATC (RADAR)
Sun 07:29:19 PM -32.8566 150.8026 182° South 161 185 7,900  Level Aus ATC (RADAR)
Sun 07:29:53 PM -32.8830 150.8020 181° South 161 185 7,900  Level Aus ATC (RADAR)
Sun 07:30:38 PM -32.9168 150.8006 182° South 162 186 7,900  Level Aus ATC (RADAR)
Sun 07:31:03 PM -32.9358 150.7998 182° South 164 189 7,900  Level Aus ATC (RADAR)
Sun 07:32:13 PM -32.9888 150.7979 182° South 163 188 7,900  Level Aus ATC (RADAR)
Sun 07:32:38 PM -33.0081 150.7969 183° South 166 191 7,900  Level Aus ATC (RADAR)
Sun 07:33:03 PM -33.0276 150.7962 182° South 168 193 7,900  Level Aus ATC (RADAR)
Sun 07:33:43 PM -33.0589 150.7952 181° South 169 194 7,900  Level Aus ATC (RADAR)
Sun 07:34:28 PM -33.0939 150.7938 182° South 167 192 7,900  Level Aus ATC (RADAR)
Sun 07:35:03 PM -33.1216 150.7927 182° South 171 197 7,900  Level Aus ATC (RADAR)
Sun 07:36:03 PM -33.1680 150.7906 182° South 167 192 7,900  Level Aus ATC (RADAR)
Sun 07:36:18 PM -33.1796 150.7904 181° South 167 192 7,900  Level Aus ATC (RADAR)
Sun 07:37:38 PM -33.2429 150.7885 181° South 170 196 7,900  Level Aus ATC (RADAR)
Sun 07:38:02 PM -33.2624 150.7877 182° South 170 196 7,900  Level Aus ATC (RADAR)
Sun 07:38:37 PM -33.2897 150.7865 182° South 168 193 7,900  Level Aus ATC (RADAR)
Sun 07:39:22 PM -33.3248 150.7855 181° South 169 194 7,900  Level Aus ATC (RADAR)
Sun 07:40:03 PM -33.3566 150.7849 181° South 172 198 7,900  Level Aus ATC (RADAR)
Sun 07:40:52 PM -33.3966 150.7842 181° South 173 199 7,900  Level Aus ATC (RADAR)
Sun 07:41:17 PM -33.4164 150.7838 181° South 174 200 7,900 -75 Level Aus ATC (RADAR)
Sun 07:42:12 PM -33.4617 150.7829 181° South 180 207 7,800 -300 Descending Aus ATC (RADAR)
Sun 07:42:37 PM -33.4833 150.7824 181° South 186 214 7,500 -600 Descending Aus ATC (RADAR)
Sun 07:43:02 PM -33.5051 150.7818 181° South 188 216 7,300 -462 Descending Aus ATC (RADAR)
Sun 07:43:42 PM -33.5398 150.7817 180° South 181 208 7,000 -494 Descending Aus ATC (RADAR)
Sun 07:44:27 PM -33.5783 150.7808 181° South 187 215 6,600 -519 Descending Aus ATC (RADAR)
Sun 07:45:03 PM -33.6081 150.7795 182° South 183 211 6,300 -494 Descending Aus ATC (RADAR)
Sun 07:45:52 PM -33.6449 150.7575 206° Southwest 175 201 5,900 -324 Descending Aus ATC (RADAR)
Sun 07:46:17 PM -33.6620 150.7442 213° Southwest 173 199 5,900  Level Aus ATC (RADAR)
Sun 07:47:16 PM -33.6999 150.7147 213° Southwest 159 183 5,900  Level Aus ATC (RADAR)
Sun 07:47:46 PM -33.7189 150.7001 213° Southwest 165 190 5,900  Level Aus ATC (RADAR)
Sun 07:48:12 PM -33.7353 150.6872 213° Southwest 166 191 5,900  Level Aus ATC (RADAR)
Sun 07:48:46 PM -33.7585 150.6689 213° Southwest 169 194 5,900  Level Aus ATC (RADAR)
Sun 07:49:31 PM -33.7885 150.6458 213° Southwest 169 194 5,900  Level Aus ATC (RADAR)
Sun 07:50:06 PM -33.8118 150.6273 213° Southwest 170 196 5,900 -353 Level Aus ATC (RADAR)
Sun 07:50:56 PM -33.8466 150.6003 213° Southwest 178 205 5,400 -554 Descending Aus ATC (RADAR)
Sun 07:51:11 PM -33.8569 150.5923 213° Southwest 177 204 5,300 -120 Descending Aus ATC (RADAR)
Sun 07:51:46 PM -33.8789 150.5750 213° Southwest 162 186 5,300  Level Aus ATC (RADAR)
Sun 07:52:56 PM -33.9203 150.5425 213° Southwest 151 174 5,300  Level Aus ATC (RADAR)
Sun 07:53:21 PM -33.9352 150.5309 213° Southwest 151 174 5,300  Level Aus ATC (RADAR)
Sun 07:53:56 PM -33.9553 150.5150 213° Southwest 148 170 5,300  Level Aus ATC (RADAR)
Sun 07:54:45 PM -33.9846 150.4920 213° Southwest 151 174 5,300  Level Aus ATC (RADAR)
Sun 07:55:20 PM -34.0047 150.4762 213° Southwest 147 169 5,300  Level Aus ATC (RADAR)
Sun 07:56:05 PM -34.0298 150.4567 213° Southwest 141 162 5,300  Level Aus ATC (RADAR)
Sun 07:56:30 PM -34.0426 150.4467 213° Southwest 133 153 5,300  Level Aus ATC (RADAR)
Sun 07:57:30 PM -34.0725 150.4260 210° Southwest 125 144 5,300 -200 Level Aus ATC (RADAR)
Sun 07:58:00 PM -34.0869 150.4395 142° Southeast 135 155 5,000 -655 Descending Aus ATC (RADAR)
Sun 07:58:25 PM -34.0969 150.4547 129° Southeast 137 158 4,700 -655 Descending Aus ATC (RADAR)
Sun 07:58:55 PM -34.1083 150.4711 130° Southeast 126 145 4,400 -600 Descending Aus ATC (RADAR)
Sun 07:59:45 PM -34.1255 150.4978 128° Southeast 114 131 3,900 -545 Descending Aus ATC (RADAR)
Sun 08:00:23 PM -34.1181 150.5170 65° Northeast 104 120 3,600 -635 Descending Aus ATC (RADAR)
Sun 08:01:10 PM -34.1062 150.5430 61° Northeast 99 114 3,000 -667 Descending Aus ATC (RADAR)
Sun 08:01:35 PM -34.1001 150.5555 59° Northeast 100 115 2,800 -640 Descending Aus ATC (RADAR)
Sun 08:02:25 PM -34.0877 150.5820 61° Northeast 107 123 2,200 -675 Descending Aus ATC (RADAR)
Sun 08:02:55 PM -34.0794 150.5972 57° Northeast 108 124 1,900 -436 Descending Aus ATC (RADAR)
Sun 08:03:20 PM -34.0729 150.6082 54° Northeast 100 115 1,800 -500 Descending Aus ATC (RADAR)
Sun 08:03:55 PM -34.0639 150.6247 57° Northeast 101 116 1,400 -608 Descending Aus ATC (RADAR)
Sun 08:04:39 PM -34.0539 150.6465 61° Northeast 100 115 1,000 -571 Descending Aus ATC (RADAR)
Sun 08:05:19 PM -34.0473 150.6641 66° East 84 97 600 -565 Descending Aus ATC (RADAR)
Sun 08:06:04 PM -34.0397 150.6829 64° Northeast 82 94 200 -600 Descending Aus ATC (RADAR)
Sun 08:06:09 PM -34.0388 150.6848 60° Northeast 82 94 100 -1,200 Descending Aus ATC (RADAR)

Login

Don't have an account? Register now (free) for customized features, flight alerts, and more!